Detall de PIREP

Printer-friendly versionPDF version

[2014/02/23 08:51:00]
Flight IATA:CT1004
Pilot Number:012
Company ICAO:CAT
Aircraft Type:C750/F
PAX:4
Departing Airport: EGLC
Destination Airport: LEBL
Alternate Airport:LEPA
Online: VATSIM
Route:LYD UM189 DRAKE UL151 SITET UN859 PUMAL
Flight Level:F490
No Slew and time accel
No pause
Crash detect
Detect pilot in Cockpit between each 30 and 45 minutes
08:51 Zero fuel Weight: 22851 Lbs, Fuel Weight: 5698 Lbs
08:51 VATSIM:EGLC 230820Z AUTO 21013KT 9999 -SHRA FEW016/// BKN030/// BKN045/// 10/07 Q1011
08:51 VATSIM:LEBL 230800Z 33013KT CAVOK 06/01 Q1023 NOSIG
08:51 VOICE CATALONIAN / MWC 2014 BARCELONA CHARTER
08:55 Parking Brakes off
08:59 Take-off
08:59 Take off Weight: 28455 Lbs
08:59 Wind: 211º @ 013 Knots Heading: 271º
08:59 POS N51º 30´ 19´´ E000º 02´ 49´´
08:59 Gear Up: 159 Knots
08:59 Flaps:3 at 159 Knots
09:00 Flaps:0 at 245 Knots
09:14 Wind:240º@056 Knots Heading: 221º Ground Speed: 437 Knots Altitude 45544 ft
09:15 TOC
09:15 Fuel Weight: 4972 Lb
09:15 TOD
09:15 Fuel Weight: 4972 Lb
09:15 TOC
09:15 Fuel Weight: 4971 Lb
09:29 Wind:235º@045 Knots Heading: 170º Ground Speed: 498 Knots Altitude 49130 ft
09:44 Wind:232º@038 Knots Heading: 184º Ground Speed: 470 Knots Altitude 49212 ft
09:59 Wind:245º@035 Knots Heading: 175º Ground Speed: 482 Knots Altitude 49206 ft
10:07 TOD
10:07 Fuel Weight: 4106 Lb
10:14 Wind:308º@022 Knots Heading: 177º Ground Speed: 484 Knots Altitude 30882 ft
10:29 Wind:139º@003 Knots Heading: 217º Ground Speed: 232 Knots Altitude 6089 ft
10:33 Flaps:2 at 190 Knots
10:33 Flaps:3 at 187 Knots
10:35 Gear Down: 168 Knots
10:35 Flaps:4 at 159 Knots
10:35 Flaps:5 at 148 Knots
10:37 TouchDown:Rate -102 ft/min Speed: 123 Knots
10:37 VATSIM:LEBL 231000Z 32007KT 280V350 CAVOK 12/03 Q1022 NOSIG
10:37 Land
10:37 Wind:316º@007 Knots
10:37 Heading: 245º
10:37 Flight Duration: 01:38
10:37 Landing Weight: 26671 Lbs
10:37 POS N41º 17´ 59´´ E002º 05´ 10´´
10:40 Parking brakes on
10:40 Block to Block Duration: 01:45
10:40 Final Fuel: 3802 Lbls
10:40 Spent Fuel: 1895 Lbls
10:40 Flight Length: 683 NM
10:40 TOD Land Length: 164 NM

Exportar CSV

Powered by Drupal - Modified by Danger4k